Time;durP1;ratioP1;P1;durP2;ratioP2;P2;SDS_P1;SDS_P2;PMS_P1;PMS_P2;Temp;Humidity;BMP_temperature;BMP_pressure;BME280_temperature;BME280_humidity;BME280_pressure;Samples;Min_cycle;Max_cycle;Signal;HPM_P1;HPM_P2
2023/05/04 00:01:33;;;;;;;2.90;2.10;;;;;;;19.21;59.93;100700.94;5070572;28;20171;-62
2023/05/04 00:03:58;;;;;;;4.67;2.30;;;;;;;19.21;60.28;100695.22;5087669;28;20208;-63
2023/05/04 00:06:24;;;;;;;2.83;1.90;;;;;;;19.19;60.50;100686.19;5072356;28;20183;-63
2023/05/04 00:08:49;;;;;;;3.23;2.50;;;;;;;19.21;60.48;100691.53;5070146;28;20203;-63
2023/05/04 00:11:16;;;;;;;3.20;2.13;;;;;;;19.20;60.08;100687.00;5068578;28;20179;-63
2023/05/04 00:13:41;;;;;;;3.20;1.97;;;;;;;19.19;60.05;100683.31;5073442;28;20241;-63
2023/05/04 00:16:07;;;;;;;3.10;2.30;;;;;;;19.20;60.52;100689.84;5069175;28;20402;-63
2023/05/04 00:18:32;;;;;;;4.77;2.07;;;;;;;19.19;60.21;100686.19;5069111;28;20837;-62
2023/05/04 00:20:58;;;;;;;3.50;2.30;;;;;;;19.19;60.51;100689.03;5080530;28;20183;-63
2023/05/04 00:23:23;;;;;;;3.50;1.77;;;;;;;19.20;60.69;100681.28;5092207;28;20163;-62
2023/05/04 00:25:48;;;;;;;3.87;2.27;;;;;;;19.18;60.42;100678.81;5089749;28;20290;-62
2023/05/04 00:28:14;;;;;;;2.93;2.13;;;;;;;19.18;60.63;100675.09;5093345;28;20159;-63
2023/05/04 00:30:39;;;;;;;2.97;2.10;;;;;;;19.19;60.41;100674.72;5093076;28;20178;-63
2023/05/04 00:33:05;;;;;;;2.87;1.80;;;;;;;19.19;60.27;100674.72;5088083;28;20182;-62
2023/05/04 00:35:30;;;;;;;3.10;2.30;;;;;;;19.19;60.40;100674.72;5092912;28;20163;-62
2023/05/04 00:37:56;;;;;;;2.80;1.90;;;;;;;19.19;60.65;100673.91;5087488;28;20178;-62
2023/05/04 00:40:22;;;;;;;4.50;2.50;;;;;;;19.19;60.61;100671.88;5073956;28;20178;-63
2023/05/04 00:42:47;;;;;;;4.27;2.40;;;;;;;19.21;59.89;100671.50;5082959;28;20266;-62
2023/05/04 00:45:13;;;;;;;3.20;1.90;;;;;;;19.21;60.31;100668.63;5071809;28;20200;-62
2023/05/04 00:47:39;;;;;;;2.87;1.90;;;;;;;19.20;60.92;100670.66;5074126;28;20214;-63
2023/05/04 00:50:05;;;;;;;3.60;2.00;;;;;;;19.21;60.59;100668.63;5075322;28;20487;-63
2023/05/04 00:52:31;;;;;;;3.07;2.10;;;;;;;19.21;60.43;100663.72;5072215;28;20449;-63
2023/05/04 00:54:56;;;;;;;2.50;1.40;;;;;;;19.20;60.57;100659.22;5073876;28;20431;-63
2023/05/04 00:57:22;;;;;;;2.97;2.23;;;;;;;19.20;60.63;100655.50;5054093;28;20182;-63
2023/05/04 00:59:47;;;;;;;2.60;1.97;;;;;;;19.18;60.70;100655.91;5072309;28;20159;-62
2023/05/04 01:02:12;;;;;;;3.00;1.97;;;;;;;19.19;60.81;100643.25;5072989;28;20171;-62
2023/05/04 01:04:38;;;;;;;3.20;2.07;;;;;;;19.20;61.05;100655.50;5071028;28;20175;-62
2023/05/04 01:07:17;;;;;;;2.20;1.53;;;;;;;19.19;60.88;100651.84;5056786;28;20193;-62
2023/05/04 01:09:47;;;;;;;2.90;1.77;;;;;;;19.19;60.61;100654.69;5073917;28;20198;-62
2023/05/04 01:12:29;;;;;;;2.40;1.70;;;;;;;19.20;60.95;100655.50;5085512;28;20778;-62
2023/05/04 01:14:54;;;;;;;3.73;1.80;;;;;;;19.19;60.94;100648.97;5072179;28;20825;-63
2023/05/04 01:17:20;;;;;;;2.50;1.93;;;;;;;19.17;60.95;100648.50;5036262;28;20413;-63
2023/05/04 01:19:46;;;;;;;2.83;1.90;;;;;;;19.18;60.77;100647.31;5080903;28;20178;-63
2023/05/04 01:22:12;;;;;;;3.27;1.93;;;;;;;19.19;60.98;100648.97;5091925;28;20175;-63
2023/05/04 01:24:37;;;;;;;3.90;1.97;;;;;;;19.20;61.11;100653.50;5089576;28;20428;-62
2023/05/04 01:27:14;;;;;;;2.20;1.60;;;;;;;19.18;61.08;100650.19;5071968;28;20206;-62
2023/05/04 01:29:51;;;;;;;3.20;1.97;;;;;;;19.18;61.21;100652.22;5054143;28;20183;-63
2023/05/04 01:32:16;;;;;;;1.97;1.33;;;;;;;19.18;60.65;100653.06;5085148;28;20428;-63
2023/05/04 01:34:42;;;;;;;3.00;2.20;;;;;;;19.18;60.98;100664.50;5054091;28;20515;-62
2023/05/04 01:37:07;;;;;;;2.90;1.90;;;;;;;19.18;61.09;100657.94;5072308;28;20174;-63
2023/05/04 01:39:33;;;;;;;3.33;2.17;;;;;;;19.16;60.96;100664.03;5075163;28;20179;-62
2023/05/04 01:41:58;;;;;;;4.33;2.07;;;;;;;19.18;61.04;100663.66;5055268;28;20193;-62
2023/05/04 01:44:23;;;;;;;2.83;1.87;;;;;;;19.17;60.99;100662.00;5071247;28;20168;-63
2023/05/04 01:46:49;;;;;;;2.70;1.90;;;;;;;19.17;60.94;100662.00;5071362;28;20171;-63
2023/05/04 01:49:14;;;;;;;4.10;1.50;;;;;;;19.17;61.60;100668.53;5070662;28;20202;-62
2023/05/04 01:51:40;;;;;;;3.67;1.83;;;;;;;19.17;60.87;100665.69;5053253;28;20237;-62
2023/05/04 01:54:05;;;;;;;2.70;2.00;;;;;;;19.17;61.13;100659.94;5071068;28;20286;-62
2023/05/04 01:56:31;;;;;;;3.40;2.37;;;;;;;19.17;60.86;100665.69;5061497;28;20178;-63
2023/05/04 01:58:56;;;;;;;2.10;1.53;;;;;;;19.16;60.99;100666.88;5091625;28;20175;-63
2023/05/04 02:01:22;;;;;;;3.90;2.27;;;;;;;19.17;61.13;100667.72;5071508;28;20182;-63
2023/05/04 02:03:47;;;;;;;3.30;1.87;;;;;;;19.16;61.07;100658.31;5074999;28;20182;-62
2023/05/04 02:06:12;;;;;;;3.20;1.67;;;;;;;19.17;61.08;100667.72;5070833;28;20178;-63
2023/05/04 02:08:38;;;;;;;3.20;2.50;;;;;;;19.16;60.96;100661.16;5061670;28;20193;-63
2023/05/04 02:11:03;;;;;;;2.47;1.60;;;;;;;19.16;61.14;100661.16;5079999;28;20179;-63
2023/05/04 02:13:29;;;;;;;2.53;1.70;;;;;;;19.16;61.20;100660.34;5072745;28;20215;-63
2023/05/04 02:15:54;;;;;;;2.90;1.77;;;;;;;19.14;61.36;100657.88;5072009;28;20633;-63
2023/05/04 02:18:20;;;;;;;2.63;1.80;;;;;;;19.14;61.53;100655.00;5070642;28;20174;-63
2023/05/04 02:20:45;;;;;;;2.60;1.90;;;;;;;19.14;61.42;100657.88;5070725;28;20175;-62
2023/05/04 02:23:11;;;;;;;3.10;1.93;;;;;;;19.14;61.04;100655.00;5072914;28;20194;-63
2023/05/04 02:25:39;;;;;;;2.20;1.60;;;;;;;19.14;61.41;100657.03;5070500;28;20187;-62
2023/05/04 02:28:05;;;;;;;2.20;1.60;;;;;;;19.16;61.47;100657.50;5072304;28;20175;-62
2023/05/04 02:30:30;;;;;;;2.80;1.87;;;;;;;19.14;61.46;100657.03;5069037;28;20495;-63
2023/05/04 02:32:55;;;;;;;2.70;1.70;;;;;;;19.14;61.10;100649.28;5069953;28;20250;-62
2023/05/04 02:35:21;;;;;;;2.40;1.50;;;;;;;19.15;61.18;100653.78;5084324;28;20178;-63
2023/05/04 02:37:46;;;;;;;3.20;2.10;;;;;;;19.14;61.44;100657.88;5072956;28;20516;-62
2023/05/04 02:40:12;;;;;;;2.20;1.57;;;;;;;19.15;61.22;100647.22;5053270;28;20204;-62
2023/05/04 02:42:37;;;;;;;3.13;1.97;;;;;;;19.14;61.21;100646.41;5069782;28;20356;-62
2023/05/04 02:45:03;;;;;;;2.40;1.70;;;;;;;19.14;61.37;100652.13;5068943;28;20656;-62
2023/05/04 02:47:29;;;;;;;2.80;2.00;;;;;;;19.15;61.50;100650.09;5054706;28;20174;-63
2023/05/04 02:49:54;;;;;;;2.13;1.50;;;;;;;19.15;61.37;100644.34;5069993;28;20243;-62
2023/05/04 02:52:20;;;;;;;3.20;1.80;;;;;;;19.16;61.27;100646.03;5071860;28;20190;-63
2023/05/04 02:54:45;;;;;;;3.10;1.70;;;;;;;19.17;61.22;100647.69;5051993;28;20183;-62
2023/05/04 02:57:10;;;;;;;3.60;1.77;;;;;;;19.16;61.22;100648.91;5070098;28;20175;-62
2023/05/04 02:59:36;;;;;;;2.60;1.70;;;;;;;19.16;61.28;100641.13;5069947;28;20171;-62
2023/05/04 03:02:01;;;;;;;2.70;2.00;;;;;;;19.16;61.33;100634.59;5071985;28;20187;-62
2023/05/04 03:04:27;;;;;;;2.47;1.83;;;;;;;19.16;61.19;100644.00;5070028;28;20488;-62
2023/05/04 03:06:52;;;;;;;2.20;1.67;;;;;;;19.15;61.23;100630.88;5072420;28;20595;-63
2023/05/04 03:09:18;;;;;;;3.37;1.80;;;;;;;19.15;61.36;100635.78;5071732;28;20214;-62
2023/05/04 03:11:43;;;;;;;2.30;1.57;;;;;;;19.14;61.17;100634.97;5056173;28;20179;-62
2023/05/04 03:14:08;;;;;;;2.50;1.80;;;;;;;19.14;61.63;100631.25;5079725;28;20232;-62
2023/05/04 03:16:34;;;;;;;2.60;1.80;;;;;;;19.15;61.36;100632.91;5090071;28;20170;-62
2023/05/04 03:18:59;;;;;;;2.77;1.80;;;;;;;19.13;61.69;100626.75;5084265;28;20228;-62
2023/05/04 03:21:25;;;;;;;2.30;1.67;;;;;;;19.13;61.64;100627.59;5069580;28;20175;-63
2023/05/04 03:23:50;;;;;;;3.93;1.90;;;;;;;19.13;61.45;100623.88;5069158;28;20633;-63
2023/05/04 03:26:16;;;;;;;2.63;1.80;;;;;;;19.13;61.56;100632.47;5071510;28;20591;-62
2023/05/04 03:28:41;;;;;;;2.47;1.73;;;;;;;19.13;61.33;100626.75;5069684;28;20616;-63
2023/05/04 03:31:06;;;;;;;2.67;1.50;;;;;;;19.13;61.30;100629.63;5069822;28;20605;-63
2023/05/04 03:33:32;;;;;;;3.07;1.80;;;;;;;19.13;61.41;100616.16;5051491;28;20167;-62
2023/05/04 03:35:58;;;;;;;2.80;1.87;;;;;;;19.13;61.67;100609.59;5071552;28;20194;-62
2023/05/04 03:38:23;;;;;;;3.20;2.20;;;;;;;19.13;61.46;100627.59;5069551;28;20175;-63
2023/05/04 03:40:48;;;;;;;2.80;1.80;;;;;;;19.12;61.39;100622.25;5071445;28;20186;-63
2023/05/04 03:43:14;;;;;;;2.90;2.00;;;;;;;19.12;61.77;100614.47;5068530;28;20190;-62
2023/05/04 03:45:39;;;;;;;2.97;1.67;;;;;;;19.11;61.69;100606.28;5068855;28;20159;-62
2023/05/04 03:48:05;;;;;;;2.40;1.60;;;;;;;19.12;61.52;100614.47;5070474;28;20178;-62
2023/05/04 03:50:30;;;;;;;2.33;1.80;;;;;;;19.11;61.66;100606.28;5071226;28;20282;-63
2023/05/04 03:52:56;;;;;;;2.03;1.60;;;;;;;19.11;61.48;100601.38;5068153;28;20240;-63
2023/05/04 03:55:21;;;;;;;2.83;2.10;;;;;;;19.11;61.51;100601.38;5069279;28;20186;-63
2023/05/04 03:57:47;;;;;;;3.07;1.80;;;;;;;19.11;61.51;100607.09;5073326;28;20171;-63
2023/05/04 04:00:13;;;;;;;2.37;1.83;;;;;;;19.08;61.97;100602.13;5075397;28;20183;-63
2023/05/04 04:02:38;;;;;;;3.23;2.00;;;;;;;19.10;61.88;100605.44;5073274;28;20176;-62
2023/05/04 04:05:05;;;;;;;2.90;1.57;;;;;;;19.10;61.47;100611.16;5074041;28;20433;-62
2023/05/04 04:07:32;;;;;;;3.10;2.10;;;;;;;19.10;61.55;100614.03;5088361;28;20202;-62
2023/05/04 04:09:57;;;;;;;2.70;1.77;;;;;;;19.11;61.44;100614.88;5092393;28;20538;-63
2023/05/04 04:12:23;;;;;;;2.33;1.50;;;;;;;19.10;61.32;100618.91;5087376;28;20490;-63
2023/05/04 04:14:51;;;;;;;2.60;1.70;;;;;;;19.10;61.63;100611.16;5090011;28;20268;-62
2023/05/04 04:17:16;;;;;;;3.00;2.03;;;;;;;19.09;61.69;100623.81;5089024;28;20182;-62
2023/05/04 04:19:42;;;;;;;2.30;1.63;;;;;;;19.09;61.49;100608.66;5074463;28;20916;-63
2023/05/04 04:22:07;;;;;;;2.53;1.63;;;;;;;19.09;61.39;100620.97;5072425;28;20198;-63
2023/05/04 04:24:33;;;;;;;2.60;1.90;;;;;;;19.09;61.64;100622.97;5072666;28;20193;-62
2023/05/04 04:26:58;;;;;;;2.97;1.80;;;;;;;19.08;61.70;100619.31;5073952;28;20175;-62
2023/05/04 04:29:24;;;;;;;2.57;1.70;;;;;;;19.07;61.59;100614.75;5092840;28;20197;-63
2023/05/04 04:31:49;;;;;;;2.50;1.50;;;;;;;19.09;62.01;100623.81;5093187;28;20183;-62
2023/05/04 04:34:15;;;;;;;2.10;1.60;;;;;;;19.09;61.93;100614.41;5093137;28;20159;-62
2023/05/04 04:36:40;;;;;;;2.70;1.90;;;;;;;19.10;61.32;100621.78;5085715;28;20182;-63
2023/05/04 04:39:06;;;;;;;2.67;1.80;;;;;;;19.09;61.48;100618.09;5072533;28;20166;-62
2023/05/04 04:41:32;;;;;;;2.10;1.60;;;;;;;19.10;61.60;100622.59;5074200;28;20178;-63
2023/05/04 04:43:58;;;;;;;3.20;2.10;;;;;;;19.10;61.53;100618.91;5073053;28;20455;-62
2023/05/04 04:46:23;;;;;;;3.07;1.50;;;;;;;19.09;61.79;100615.25;5072071;28;20175;-63
2023/05/04 04:48:52;;;;;;;3.40;1.73;;;;;;;19.09;61.74;100625.84;5071775;28;20206;-63
2023/05/04 04:51:17;;;;;;;3.00;2.03;;;;;;;19.09;61.40;100609.50;5075826;28;20182;-63
2023/05/04 04:53:43;;;;;;;2.37;1.57;;;;;;;19.10;61.52;100611.16;5092760;28;20417;-63
2023/05/04 04:56:09;;;;;;;2.03;1.20;;;;;;;19.10;61.61;100624.63;5085054;28;20175;-63
2023/05/04 04:58:34;;;;;;;2.73;1.80;;;;;;;19.10;61.56;100622.59;5072983;28;20235;-63
2023/05/04 05:01:03;;;;;;;2.30;1.57;;;;;;;19.10;61.51;100618.91;5074113;28;20459;-63
2023/05/04 05:03:29;;;;;;;2.90;1.70;;;;;;;19.11;61.55;100615.69;5074869;28;20281;-63
2023/05/04 05:05:54;;;;;;;2.60;1.83;;;;;;;19.12;61.48;100613.66;5074060;28;20445;-63
2023/05/04 05:08:20;;;;;;;2.20;1.80;;;;;;;19.13;61.42;100616.16;5056269;28;20201;-62
2023/05/04 05:10:45;;;;;;;2.43;1.63;;;;;;;19.13;61.53;100627.59;5078187;28;20183;-63
2023/05/04 05:13:11;;;;;;;2.30;1.53;;;;;;;19.13;61.43;100632.47;5084481;28;20222;-62
2023/05/04 05:15:36;;;;;;;3.30;2.00;;;;;;;19.14;61.42;100629.25;5091329;28;20163;-62
2023/05/04 05:18:02;;;;;;;2.90;1.70;;;;;;;19.13;61.62;100619.00;5091389;28;20159;-62
2023/05/04 05:20:27;;;;;;;2.87;1.90;;;;;;;19.13;61.68;100621.03;5089598;28;20158;-62
2023/05/04 05:22:53;;;;;;;2.20;1.43;;;;;;;19.12;61.63;100616.50;5073437;28;20186;-62
2023/05/04 05:25:18;;;;;;;2.50;1.60;;;;;;;19.12;61.91;100619.38;5071995;28;20171;-63
2023/05/04 05:27:44;;;;;;;2.30;1.80;;;;;;;19.11;61.87;100614.88;5065500;28;20179;-63
2023/05/04 05:30:10;;;;;;;2.90;1.90;;;;;;;19.11;61.75;100624.25;5033591;28;20184;-63
2023/05/04 05:32:36;;;;;;;2.47;1.40;;;;;;;19.12;61.37;100625.09;5055493;28;20177;-63
2023/05/04 05:35:03;;;;;;;2.40;1.83;;;;;;;19.11;61.59;100632.84;5090469;28;20783;-63
2023/05/04 05:37:29;;;;;;;2.40;1.63;;;;;;;19.11;61.91;100629.97;5091178;28;20404;-63
2023/05/04 05:39:54;;;;;;;2.70;1.90;;;;;;;19.12;61.94;100636.53;5086897;28;20436;-63
2023/05/04 05:42:20;;;;;;;2.87;1.90;;;;;;;19.10;61.61;100634.06;5091287;28;20620;-63
2023/05/04 05:44:45;;;;;;;2.77;1.80;;;;;;;19.10;61.94;100628.34;5073871;28;20642;-63
2023/05/04 05:47:11;;;;;;;2.70;1.77;;;;;;;19.11;61.74;100632.84;5091440;28;20158;-63
2023/05/04 05:49:36;;;;;;;2.23;1.60;;;;;;;19.11;61.60;100635.72;5076224;28;20202;-62
2023/05/04 05:52:02;;;;;;;2.17;1.53;;;;;;;19.12;61.39;100640.22;5055218;28;20729;-62
2023/05/04 05:54:28;;;;;;;2.03;1.40;;;;;;;19.11;61.51;100635.72;5071451;28;20171;-62
2023/05/04 05:56:54;;;;;;;2.70;1.80;;;;;;;19.12;61.58;100636.53;5073603;28;20263;-62
2023/05/04 05:59:19;;;;;;;2.90;2.00;;;;;;;19.12;61.59;100636.53;5070945;28;20417;-63
2023/05/04 06:01:45;;;;;;;2.30;1.60;;;;;;;19.12;61.47;100642.28;5070238;28;20598;-62
2023/05/04 06:04:10;;;;;;;2.20;1.30;;;;;;;19.11;61.76;100644.28;5079304;28;20940;-63
2023/05/04 06:06:36;;;;;;;1.93;1.30;;;;;;;19.12;61.49;100645.94;5073157;28;20562;-62
2023/05/04 06:09:01;;;;;;;2.37;1.53;;;;;;;19.12;61.45;100642.28;5070874;28;20207;-63
2023/05/04 06:11:27;;;;;;;2.20;1.53;;;;;;;19.12;61.70;100639.41;5072922;28;20187;-63
2023/05/04 06:13:52;;;;;;;2.30;1.50;;;;;;;19.11;61.84;100638.56;5071012;28;20230;-63
2023/05/04 06:16:18;;;;;;;2.10;1.40;;;;;;;19.12;61.68;100645.13;5071577;28;20159;-62
2023/05/04 06:18:43;;;;;;;2.57;1.73;;;;;;;19.12;61.76;100637.34;5071710;28;20541;-62
2023/05/04 06:21:09;;;;;;;2.63;1.47;;;;;;;19.12;61.67;100634.50;5072809;28;20185;-62
2023/05/04 06:23:34;;;;;;;2.30;1.90;;;;;;;19.11;61.76;100632.84;5079906;28;20190;-63
2023/05/04 06:26:00;;;;;;;2.40;1.63;;;;;;;19.11;61.89;100629.97;5074645;28;20182;-63
2023/05/04 06:28:25;;;;;;;2.60;1.60;;;;;;;19.10;61.67;100636.91;5071228;28;20194;-62
2023/05/04 06:30:50;;;;;;;2.40;1.60;;;;;;;19.12;61.65;100630.81;5054949;28;20219;-63
2023/05/04 06:33:16;;;;;;;4.10;1.40;;;;;;;19.12;61.84;100631.63;5049020;28;20172;-62
2023/05/04 06:35:42;;;;;;;2.10;1.70;;;;;;;19.11;61.65;100624.25;5064363;28;20190;-63
2023/05/04 06:38:07;;;;;;;2.60;1.93;;;;;;;19.11;61.78;100623.44;5069299;28;20166;-63
2023/05/04 06:40:33;;;;;;;2.07;1.63;;;;;;;19.10;61.88;100616.03;5071199;28;20187;-62
2023/05/04 06:42:58;;;;;;;1.90;1.40;;;;;;;19.11;61.84;100612.81;5070213;28;20187;-63
2023/05/04 06:45:23;;;;;;;2.10;1.47;;;;;;;19.11;61.89;100624.25;5066779;28;20183;-63
2023/05/04 06:47:49;;;;;;;2.50;1.60;;;;;;;19.12;61.83;100625.09;5079577;28;20182;-63
2023/05/04 06:50:15;;;;;;;3.97;2.10;;;;;;;19.10;61.78;100621.78;5085751;28;20199;-63
2023/05/04 06:52:41;;;;;;;2.60;1.33;;;;;;;19.12;61.69;100619.38;5051959;28;20638;-63
2023/05/04 06:55:07;;;;;;;2.40;1.50;;;;;;;19.11;61.78;100617.72;5090244;28;20221;-62
2023/05/04 06:57:32;;;;;;;2.40;1.60;;;;;;;19.11;61.70;100609.13;5070100;28;20468;-62
2023/05/04 06:59:58;;;;;;;2.63;1.70;;;;;;;19.11;61.90;100614.88;5072072;28;20183;-62
2023/05/04 07:02:23;;;;;;;2.47;1.70;;;;;;;19.10;61.88;100616.88;5069495;28;20163;-63
2023/05/04 07:04:49;;;;;;;2.37;1.53;;;;;;;19.10;62.21;100618.91;5072035;28;20185;-63
2023/05/04 07:07:14;;;;;;;2.60;1.70;;;;;;;19.11;61.84;100624.25;5068861;28;20198;-62
2023/05/04 07:09:40;;;;;;;3.33;1.57;;;;;;;19.13;62.03;100632.47;5069633;28;20760;-62
2023/05/04 07:12:06;;;;;;;2.17;1.50;;;;;;;19.11;61.91;100629.97;5071397;28;20187;-63
2023/05/04 07:14:32;;;;;;;2.60;1.40;;;;;;;19.11;61.86;100624.25;5072010;28;20756;-63
2023/05/04 07:16:59;;;;;;;2.37;1.60;;;;;;;19.13;61.95;100632.47;5069050;28;20264;-63
2023/05/04 07:19:24;;;;;;;2.67;1.70;;;;;;;19.12;62.08;100633.69;5066905;28;20417;-63
2023/05/04 07:21:50;;;;;;;2.57;1.60;;;;;;;19.12;61.78;100631.63;5069134;28;20458;-63
2023/05/04 07:24:15;;;;;;;2.50;1.83;;;;;;;19.12;62.12;100623.06;5067162;28;20241;-63
2023/05/04 07:26:41;;;;;;;2.60;1.80;;;;;;;19.14;62.02;100629.25;5066725;28;20228;-63
2023/05/04 07:29:06;;;;;;;2.30;1.63;;;;;;;19.13;62.08;100629.63;5068919;28;20202;-63
2023/05/04 07:31:32;;;;;;;2.10;1.40;;;;;;;19.12;62.07;100625.91;5053270;28;20183;-63
2023/05/04 07:33:58;;;;;;;2.40;1.70;;;;;;;19.12;61.87;100625.91;5074867;28;20166;-63
2023/05/04 07:36:25;;;;;;;2.23;1.50;;;;;;;19.12;62.09;100620.19;5059562;28;20197;-63
2023/05/04 07:38:50;;;;;;;2.50;1.80;;;;;;;19.11;62.18;100620.59;5058267;28;20185;-63
2023/05/04 07:41:16;;;;;;;2.33;1.53;;;;;;;19.12;62.16;100616.50;5054820;28;20418;-63
2023/05/04 07:43:41;;;;;;;4.00;1.97;;;;;;;19.11;62.25;100621.41;5071792;28;20644;-62
2023/05/04 07:46:07;;;;;;;2.33;1.70;;;;;;;19.09;62.18;100620.97;5077139;28;20174;-63
2023/05/04 07:48:33;;;;;;;2.20;1.40;;;;;;;19.11;62.40;100627.13;5076631;28;20174;-63
2023/05/04 07:50:58;;;;;;;2.43;1.50;;;;;;;19.10;62.49;100616.03;5057050;28;20277;-63
2023/05/04 07:53:25;;;;;;;2.57;1.57;;;;;;;19.11;62.20;100615.69;5074676;28;20420;-63
2023/05/04 07:55:53;;;;;;;2.40;1.67;;;;;;;19.10;62.21;100611.16;5059171;28;20190;-63
2023/05/04 07:58:18;;;;;;;2.33;1.63;;;;;;;19.11;62.20;100598.50;5095251;28;20466;-62
2023/05/04 08:00:44;;;;;;;2.10;1.60;;;;;;;19.11;62.11;100606.28;5090047;28;20432;-63
2023/05/04 08:03:09;;;;;;;2.50;1.60;;;;;;;19.11;62.41;100606.28;5077487;28;20531;-63
2023/05/04 08:05:35;;;;;;;2.47;1.67;;;;;;;19.09;62.44;100606.66;5075130;28;20179;-63
2023/05/04 08:08:00;;;;;;;2.40;1.70;;;;;;;19.12;62.14;100602.22;5077382;28;20211;-62
2023/05/04 08:10:26;;;;;;;2.30;1.70;;;;;;;19.10;62.24;100602.56;5074923;28;20213;-63
2023/05/04 08:12:51;;;;;;;2.00;1.27;;;;;;;19.11;62.29;100604.22;5079063;28;20325;-63
2023/05/04 08:15:17;;;;;;;2.10;1.40;;;;;;;19.10;62.42;100605.44;5095018;28;20573;-63
2023/05/04 08:17:43;;;;;;;2.63;1.87;;;;;;;19.12;62.13;100610.78;5060932;28;20182;-63
2023/05/04 08:20:09;;;;;;;2.33;1.60;;;;;;;19.12;62.36;100608.75;5080770;28;20183;-63
2023/05/04 08:22:34;;;;;;;2.63;1.80;;;;;;;19.12;62.15;100602.22;5074593;28;20159;-63
2023/05/04 08:25:01;;;;;;;2.07;1.40;;;;;;;19.11;62.17;100606.28;5076675;28;20479;-63
2023/05/04 08:27:26;;;;;;;2.30;1.60;;;;;;;19.11;62.28;100589.91;5056145;28;20435;-63
2023/05/04 08:29:52;;;;;;;2.03;1.40;;;;;;;19.11;62.83;100589.09;5056633;28;20287;-63
2023/05/04 08:32:18;;;;;;;2.30;1.50;;;;;;;19.11;62.40;100592.78;5075041;28;20186;-63
2023/05/04 08:34:43;;;;;;;2.20;1.60;;;;;;;19.11;62.19;100589.91;5082266;28;20525;-63
2023/05/04 08:37:09;;;;;;;2.00;1.40;;;;;;;19.12;62.43;100594.44;5076561;28;20166;-63
2023/05/04 08:39:34;;;;;;;2.33;1.60;;;;;;;19.11;62.22;100594.84;5095002;28;20159;-63
2023/05/04 08:42:01;;;;;;;2.30;1.70;;;;;;;19.11;62.13;100598.50;5093163;28;20167;-63
2023/05/04 08:44:26;;;;;;;2.87;1.87;;;;;;;19.10;62.07;100599.72;5077461;28;20273;-63
2023/05/04 08:46:52;;;;;;;2.30;1.40;;;;;;;19.11;62.38;100601.38;5036938;28;20777;-63
2023/05/04 08:49:19;;;;;;;2.90;1.63;;;;;;;19.11;62.28;100601.38;5043084;28;20569;-62
2023/05/04 08:51:44;;;;;;;2.13;1.60;;;;;;;19.13;62.06;100604.69;5092802;28;20254;-63
2023/05/04 08:54:10;;;;;;;2.77;1.60;;;;;;;19.12;62.51;100596.47;5072926;28;20397;-62
2023/05/04 08:56:37;;;;;;;2.30;1.50;;;;;;;19.11;62.11;100607.09;5059346;28;20709;-63
2023/05/04 08:59:02;;;;;;;2.00;1.40;;;;;;;19.13;62.11;100601.84;5053977;28;20156;-63
2023/05/04 09:01:28;;;;;;;2.13;1.40;;;;;;;19.12;62.38;100594.44;5037089;28;20416;-63
2023/05/04 09:03:53;;;;;;;2.43;1.47;;;;;;;19.10;62.19;100594.00;5056083;28;20183;-63
2023/05/04 09:06:19;;;;;;;2.03;1.27;;;;;;;19.11;62.37;100592.78;5081674;28;20232;-63
2023/05/04 09:08:45;;;;;;;2.10;1.70;;;;;;;19.11;62.32;100594.84;5053456;28;20207;-63
2023/05/04 09:11:10;;;;;;;2.20;1.30;;;;;;;19.12;62.07;100600.16;5074078;28;20241;-63
2023/05/04 09:13:35;;;;;;;2.00;1.40;;;;;;;19.16;61.79;100589.63;5071589;28;20234;-63
2023/05/04 09:16:02;;;;;;;2.43;1.60;;;;;;;19.16;62.01;100592.47;5071175;28;20225;-63
2023/05/04 09:18:35;;;;;;;1.87;1.27;;;;;;;19.13;62.37;100593.25;5070199;28;20183;-63
2023/05/04 09:21:01;;;;;;;2.63;1.70;;;;;;;19.12;62.38;100591.56;5070531;28;20413;-63
2023/05/04 09:23:26;;;;;;;2.13;1.37;;;;;;;19.14;62.06;100594.91;5070578;28;20416;-62
2023/05/04 09:25:52;;;;;;;2.43;1.40;;;;;;;19.16;62.24;100597.38;5055289;28;20187;-62
2023/05/04 09:28:20;;;;;;;2.63;1.60;;;;;;;19.16;62.61;100591.66;5073190;28;20748;-63
2023/05/04 09:30:47;;;;;;;2.10;1.30;;;;;;;19.14;62.25;100599.78;5086730;28;20506;-63
2023/05/04 09:33:12;;;;;;;2.40;1.80;;;;;;;19.18;62.27;100589.25;5090961;28;20911;-63
2023/05/04 09:35:39;;;;;;;2.57;1.63;;;;;;;19.18;62.25;100589.25;5056337;28;20419;-63
2023/05/04 09:38:06;;;;;;;2.03;1.50;;;;;;;19.16;62.09;100585.94;5089827;28;20179;-63
2023/05/04 09:40:40;;;;;;;1.97;1.40;;;;;;;19.16;62.37;100583.88;5090433;28;20431;-63
2023/05/04 09:43:07;;;;;;;2.10;1.40;;;;;;;19.19;61.86;100580.28;5062079;28;21273;-62
2023/05/04 09:45:43;;;;;;;2.30;1.50;;;;;;;19.19;61.90;100582.31;5091360;28;20476;-63
2023/05/04 09:48:18;;;;;;;2.30;1.60;;;;;;;19.19;61.90;100583.13;5089858;28;20420;-63
2023/05/04 09:51:05;;;;;;;3.03;1.50;;;;;;;19.21;61.63;100574.19;5053851;28;20983;-63
2023/05/04 09:53:30;;;;;;;2.23;1.30;;;;;;;19.19;61.94;100580.28;5054257;28;20418;-63
2023/05/04 09:56:19;;;;;;;2.03;1.20;;;;;;;19.16;62.34;100578.16;5073876;28;20448;-62
2023/05/04 09:58:44;;;;;;;2.33;1.30;;;;;;;19.16;62.38;100568.78;5069551;28;20206;-62
2023/05/04 10:01:10;;;;;;;2.40;1.50;;;;;;;19.16;62.23;100569.56;5074090;28;20443;-62
2023/05/04 10:03:35;;;;;;;2.60;1.73;;;;;;;19.17;62.11;100570.41;5086686;28;20181;-62
2023/05/04 10:06:03;;;;;;;2.23;1.53;;;;;;;19.17;62.17;100571.22;5072706;28;20163;-62
2023/05/04 10:08:28;;;;;;;2.07;1.53;;;;;;;19.18;62.06;100572.91;5088068;28;20239;-63
2023/05/04 10:10:54;;;;;;;2.97;1.77;;;;;;;19.17;62.16;100568.38;5089699;28;20456;-62
2023/05/04 10:13:19;;;;;;;2.50;1.60;;;;;;;19.16;62.29;100563.03;5081177;28;20225;-63
2023/05/04 10:16:00;;;;;;;2.10;1.50;;;;;;;19.18;62.28;100555.72;5071904;28;20217;-62
2023/05/04 10:18:41;;;;;;;2.03;1.30;;;;;;;19.16;62.29;100549.53;5069237;28;20626;-63
2023/05/04 10:21:29;;;;;;;2.47;1.57;;;;;;;19.17;62.18;100548.31;5075689;28;20522;-62
2023/05/04 10:24:20;;;;;;;2.73;1.97;;;;;;;19.19;62.15;100545.09;5041297;28;20448;-62
2023/05/04 10:26:59;;;;;;;2.40;1.73;;;;;;;19.16;62.44;100529.50;5070200;28;20499;-63
2023/05/04 10:29:27;;;;;;;2.70;1.60;;;;;;;19.19;62.17;100533.66;5069915;28;21018;-62
2023/05/04 10:31:53;;;;;;;2.20;1.40;;;;;;;19.19;62.38;100534.47;5046961;28;20451;-63
2023/05/04 10:34:29;;;;;;;2.27;1.60;;;;;;;19.18;62.27;100526.28;5086683;28;20452;-62
2023/05/04 10:36:55;;;;;;;1.90;1.43;;;;;;;19.17;62.10;100528.28;5090657;28;20645;-62
2023/05/04 10:39:22;;;;;;;2.40;1.70;;;;;;;19.16;62.27;100523.78;5088026;28;20418;-62
2023/05/04 10:42:03;;;;;;;2.20;1.60;;;;;;;19.19;62.21;100525.91;5050007;28;20189;-62
2023/05/04 10:44:30;;;;;;;2.37;1.67;;;;;;;19.20;62.00;100512.41;5051856;28;20515;-63
2023/05/04 10:47:00;;;;;;;3.50;1.40;;;;;;;19.17;62.28;100502.53;5050072;28;20418;-62
2023/05/04 10:49:26;;;;;;;2.00;1.47;;;;;;;19.18;62.28;100500.50;5060793;28;20452;-62
2023/05/04 10:52:04;;;;;;;2.00;1.47;;;;;;;19.19;62.18;100497.28;5069772;28;20425;-62
2023/05/04 10:54:30;;;;;;;2.40;1.60;;;;;;;19.20;62.37;100501.78;5070200;28;20205;-62
2023/05/04 10:57:02;;;;;;;2.20;1.50;;;;;;;19.21;62.00;100491.19;5071381;28;20437;-63
2023/05/04 10:59:27;;;;;;;2.80;1.80;;;;;;;19.19;62.46;100485.00;5072495;28;20171;-63
2023/05/04 11:01:53;;;;;;;1.97;1.30;;;;;;;19.22;62.32;100490.81;5071424;28;20449;-63
2023/05/04 11:04:20;;;;;;;2.40;1.67;;;;;;;19.20;62.08;100475.19;5068783;28;20297;-63
2023/05/04 11:06:55;;;;;;;2.47;1.57;;;;;;;19.23;62.15;100478.16;5050504;28;20175;-62
2023/05/04 11:09:20;;;;;;;1.90;1.30;;;;;;;19.22;62.25;100470.75;5070656;28;20542;-63
2023/05/04 11:11:46;;;;;;;2.40;1.63;;;;;;;19.23;62.41;100478.16;5068045;28;20425;-62
2023/05/04 11:14:26;;;;;;;2.47;1.63;;;;;;;19.24;62.28;100467.53;5073264;28;20359;-63
2023/05/04 11:16:53;;;;;;;2.00;1.20;;;;;;;19.23;62.00;100457.28;5055436;28;20189;-63
2023/05/04 11:19:18;;;;;;;1.80;1.20;;;;;;;19.23;62.17;100455.28;5087715;28;20418;-63
2023/05/04 11:21:43;;;;;;;3.37;1.70;;;;;;;19.22;62.40;100462.19;5074422;28;20445;-62